sensor_id;sensor_type;location;lat;lon;timestamp;pressure;altitude;pressure_sealevel;temperature;humidity
24996;BME280;13016;52.162;21.034;2023-03-18T05:54:36;100858.06;;;4.64;47.84
24996;BME280;13016;52.162;21.034;2023-03-18T05:57:03;100854.58;;;6.59;42.67
24996;BME280;13016;52.162;21.034;2023-03-18T05:59:28;100852.88;;;7.03;41.25
24996;BME280;13016;52.162;21.034;2023-03-18T06:01:54;100852.45;;;7.28;40.56
24996;BME280;13016;52.162;21.034;2023-03-18T06:04:19;100858.73;;;7.50;40.12
24996;BME280;13016;52.162;21.034;2023-03-18T06:06:45;100862.40;;;7.67;39.40
24996;BME280;13016;52.162;21.034;2023-03-18T06:09:12;100862.34;;;7.56;39.52
24996;BME280;13016;52.162;21.034;2023-03-18T06:11:38;100866.75;;;7.93;38.92
24996;BME280;13016;52.162;21.034;2023-03-18T06:14:05;100863.16;;;8.16;38.27
24996;BME280;13016;52.162;21.034;2023-03-18T06:16:31;100862.81;;;8.28;38.03
24996;BME280;13016;52.162;21.034;2023-03-18T06:19:12;100854.91;;;8.28;37.57
24996;BME280;13016;52.162;21.034;2023-03-18T06:21:38;100855.83;;;8.47;37.16
24996;BME280;13016;52.162;21.034;2023-03-18T06:24:04;100851.05;;;8.67;36.68
24996;BME280;13016;52.162;21.034;2023-03-18T06:26:34;100850.16;;;9.15;36.13
24996;BME280;13016;52.162;21.034;2023-03-18T06:29:00;100850.41;;;9.68;35.09
24996;BME280;13016;52.162;21.034;2023-03-18T06:31:25;100846.95;;;9.77;34.66
24996;BME280;13016;52.162;21.034;2023-03-18T06:33:51;100856.03;;;10.03;33.98
24996;BME280;13016;52.162;21.034;2023-03-18T06:36:20;100854.56;;;10.55;33.14
24996;BME280;13016;52.162;21.034;2023-03-18T06:38:46;100854.73;;;10.59;32.61
24996;BME280;13016;52.162;21.034;2023-03-18T06:41:12;100856.45;;;10.69;32.63
24996;BME280;13016;52.162;21.034;2023-03-18T06:43:49;100850.90;;;10.67;32.41
24996;BME280;13016;52.162;21.034;2023-03-18T06:46:16;100859.22;;;10.86;32.10
24996;BME280;13016;52.162;21.034;2023-03-18T06:48:42;100860.65;;;11.11;31.37
24996;BME280;13016;52.162;21.034;2023-03-18T06:51:07;100862.04;;;11.30;31.15
24996;BME280;13016;52.162;21.034;2023-03-18T06:53:33;100866.89;;;11.85;30.35
24996;BME280;13016;52.162;21.034;2023-03-18T06:56:00;100868.88;;;11.90;30.05
24996;BME280;13016;52.162;21.034;2023-03-18T06:58:26;100858.65;;;11.28;30.66
24996;BME280;13016;52.162;21.034;2023-03-18T07:00:52;100863.31;;;11.30;30.60
24996;BME280;13016;52.162;21.034;2023-03-18T07:03:17;100861.53;;;11.27;30.50
24996;BME280;13016;52.162;21.034;2023-03-18T07:05:42;100858.10;;;11.34;30.42
24996;BME280;13016;52.162;21.034;2023-03-18T07:08:09;100862.06;;;11.39;30.42
24996;BME280;13016;52.162;21.034;2023-03-18T07:10:34;100858.21;;;11.54;30.39
24996;BME280;13016;52.162;21.034;2023-03-18T07:13:21;100861.56;;;11.42;30.63
24996;BME280;13016;52.162;21.034;2023-03-18T07:15:46;100859.33;;;11.62;30.29
24996;BME280;13016;52.162;21.034;2023-03-18T07:18:12;100867.83;;;11.66;29.82
24996;BME280;13016;52.162;21.034;2023-03-18T07:20:38;100867.33;;;11.56;29.88
24996;BME280;13016;52.162;21.034;2023-03-18T07:23:03;100864.88;;;11.30;30.08
24996;BME280;13016;52.162;21.034;2023-03-18T07:25:29;100865.19;;;11.21;30.47
24996;BME280;13016;52.162;21.034;2023-03-18T07:27:54;100865.38;;;11.25;30.50
24996;BME280;13016;52.162;21.034;2023-03-18T07:30:41;100863.34;;;11.20;30.99
24996;BME280;13016;52.162;21.034;2023-03-18T07:33:23;100866.22;;;11.41;30.69
24996;BME280;13016;52.162;21.034;2023-03-18T07:35:55;100871.42;;;11.36;30.75
24996;BME280;13016;52.162;21.034;2023-03-18T07:38:20;100874.23;;;11.83;30.68
24996;BME280;13016;52.162;21.034;2023-03-18T07:43:37;100880.36;;;12.23;29.91
24996;BME280;13016;52.162;21.034;2023-03-18T07:46:10;100883.46;;;12.24;29.83
24996;BME280;13016;52.162;21.034;2023-03-18T07:50:30;100880.95;;;12.19;29.59
24996;BME280;13016;52.162;21.034;2023-03-18T07:52:59;100885.80;;;12.46;29.35
24996;BME280;13016;52.162;21.034;2023-03-18T07:55:35;100887.67;;;12.39;29.00
24996;BME280;13016;52.162;21.034;2023-03-18T07:58:19;100883.69;;;11.88;29.68
24996;BME280;13016;52.162;21.034;2023-03-18T08:00:45;100891.14;;;12.29;29.43
24996;BME280;13016;52.162;21.034;2023-03-18T08:03:11;100884.00;;;12.35;29.21
24996;BME280;13016;52.162;21.034;2023-03-18T08:05:56;100879.94;;;12.15;29.61
24996;BME280;13016;52.162;21.034;2023-03-18T08:08:44;100878.27;;;12.22;29.43
24996;BME280;13016;52.162;21.034;2023-03-18T08:11:10;100880.58;;;12.51;29.04
24996;BME280;13016;52.162;21.034;2023-03-18T08:13:37;100877.39;;;12.36;29.16
24996;BME280;13016;52.162;21.034;2023-03-18T08:16:07;100877.40;;;12.16;29.42
24996;BME280;13016;52.162;21.034;2023-03-18T08:18:37;100876.24;;;12.15;29.71
24996;BME280;13016;52.162;21.034;2023-03-18T08:21:03;100875.02;;;12.64;29.49
24996;BME280;13016;52.162;21.034;2023-03-18T08:26:11;100872.91;;;13.74;28.26
24996;BME280;13016;52.162;21.034;2023-03-18T08:29:11;100870.89;;;14.17;27.93
24996;BME280;13016;52.162;21.034;2023-03-18T08:51:22;100854.48;;;14.96;25.48
24996;BME280;13016;52.162;21.034;2023-03-18T09:26:45;100831.05;;;15.04;25.66
24996;BME280;13016;52.162;21.034;2023-03-18T09:29:37;100824.71;;;15.10;25.74
24996;BME280;13016;52.162;21.034;2023-03-18T09:32:29;100827.17;;;15.23;25.71
24996;BME280;13016;52.162;21.034;2023-03-18T09:35:05;100824.84;;;15.59;25.43
24996;BME280;13016;52.162;21.034;2023-03-18T09:40:10;100826.81;;;15.40;25.13
24996;BME280;13016;52.162;21.034;2023-03-18T09:48:51;100817.17;;;14.64;26.42
24996;BME280;13016;52.162;21.034;2023-03-18T09:54:23;100817.27;;;14.78;26.67
24996;BME280;13016;52.162;21.034;2023-03-18T09:56:56;100810.35;;;15.10;26.22
24996;BME280;13016;52.162;21.034;2023-03-18T09:59:39;100809.99;;;14.95;25.94
24996;BME280;13016;52.162;21.034;2023-03-18T10:02:35;100801.20;;;14.84;26.51
24996;BME280;13016;52.162;21.034;2023-03-18T10:05:12;100806.30;;;14.92;26.42
24996;BME280;13016;52.162;21.034;2023-03-18T10:08:16;100807.41;;;14.67;26.39
24996;BME280;13016;52.162;21.034;2023-03-18T10:13:43;100805.77;;;14.82;26.34
24996;BME280;13016;52.162;21.034;2023-03-18T10:16:46;100803.19;;;14.83;26.19
24996;BME280;13016;52.162;21.034;2023-03-18T10:28:42;100792.60;;;14.73;26.27
24996;BME280;13016;52.162;21.034;2023-03-18T10:31:46;100795.37;;;14.74;26.12
24996;BME280;13016;52.162;21.034;2023-03-18T10:34:40;100784.32;;;14.79;26.14
24996;BME280;13016;52.162;21.034;2023-03-18T10:37:17;100780.68;;;14.88;26.27
24996;BME280;13016;52.162;21.034;2023-03-18T10:40:16;100784.02;;;14.79;26.46
24996;BME280;13016;52.162;21.034;2023-03-18T10:42:43;100781.86;;;14.84;26.39
24996;BME280;13016;52.162;21.034;2023-03-18T10:45:28;100779.83;;;14.87;26.11
24996;BME280;13016;52.162;21.034;2023-03-18T10:48:04;100775.89;;;14.70;26.05
24996;BME280;13016;52.162;21.034;2023-03-18T10:50:35;100772.89;;;14.70;26.29
24996;BME280;13016;52.162;21.034;2023-03-18T10:53:26;100773.76;;;14.70;26.41
24996;BME280;13016;52.162;21.034;2023-03-18T10:55:58;100772.90;;;15.05;26.16
24996;BME280;13016;52.162;21.034;2023-03-18T10:59:00;100773.38;;;15.22;25.79
24996;BME280;13016;52.162;21.034;2023-03-18T11:01:53;100770.32;;;15.30;26.09
24996;BME280;13016;52.162;21.034;2023-03-18T11:04:57;100770.96;;;15.71;25.48
24996;BME280;13016;52.162;21.034;2023-03-18T11:07:38;100773.52;;;15.44;25.39
24996;BME280;13016;52.162;21.034;2023-03-18T11:10:17;100764.37;;;15.21;25.31
24996;BME280;13016;52.162;21.034;2023-03-18T11:12:49;100762.16;;;15.36;25.71
24996;BME280;13016;52.162;21.034;2023-03-18T11:15:20;100758.15;;;15.71;25.59
24996;BME280;13016;52.162;21.034;2023-03-18T11:17:58;100754.84;;;15.83;25.45
24996;BME280;13016;52.162;21.034;2023-03-18T11:20:39;100745.60;;;15.65;24.60
24996;BME280;13016;52.162;21.034;2023-03-18T11:23:16;100744.65;;;15.54;25.15
24996;BME280;13016;52.162;21.034;2023-03-18T11:25:45;100742.52;;;15.73;24.91
24996;BME280;13016;52.162;21.034;2023-03-18T11:28:32;100738.08;;;15.75;25.04
24996;BME280;13016;52.162;21.034;2023-03-18T11:34:07;100733.40;;;15.83;24.77
24996;BME280;13016;52.162;21.034;2023-03-18T11:36:33;100727.77;;;15.86;24.82
24996;BME280;13016;52.162;21.034;2023-03-18T11:39:13;100731.59;;;15.81;24.73
24996;BME280;13016;52.162;21.034;2023-03-18T11:41:39;100728.89;;;15.79;24.67
24996;BME280;13016;52.162;21.034;2023-03-18T11:44:29;100727.83;;;15.83;24.63
24996;BME280;13016;52.162;21.034;2023-03-18T11:47:10;100723.58;;;15.78;24.87
24996;BME280;13016;52.162;21.034;2023-03-18T11:49:39;100714.69;;;15.72;25.01
24996;BME280;13016;52.162;21.034;2023-03-18T11:52:11;100719.65;;;15.41;25.36
24996;BME280;13016;52.162;21.034;2023-03-18T11:57:26;100719.10;;;15.95;24.97
24996;BME280;13016;52.162;21.034;2023-03-18T12:00:20;100713.36;;;16.16;24.65
24996;BME280;13016;52.162;21.034;2023-03-18T12:06:25;100713.63;;;16.19;24.64
24996;BME280;13016;52.162;21.034;2023-03-18T12:17:57;100714.98;;;16.47;23.83
24996;BME280;13016;52.162;21.034;2023-03-18T12:20:51;100713.02;;;16.31;24.51
24996;BME280;13016;52.162;21.034;2023-03-18T12:24:43;100715.75;;;16.61;24.03
24996;BME280;13016;52.162;21.034;2023-03-18T12:26:44;100710.91;;;16.68;23.86
24996;BME280;13016;52.162;21.034;2023-03-18T12:32:08;100705.36;;;16.49;24.01
24996;BME280;13016;52.162;21.034;2023-03-18T12:42:58;100691.07;;;16.91;23.95
24996;BME280;13016;52.162;21.034;2023-03-18T12:45:35;100686.94;;;16.80;23.98
24996;BME280;13016;52.162;21.034;2023-03-18T12:48:50;100684.31;;;16.80;23.73
24996;BME280;13016;52.162;21.034;2023-03-18T12:51:58;100686.63;;;16.58;23.90
24996;BME280;13016;52.162;21.034;2023-03-18T12:57:25;100683.92;;;16.39;24.20
24996;BME280;13016;52.162;21.034;2023-03-18T13:00:28;100679.54;;;16.77;23.87
24996;BME280;13016;52.162;21.034;2023-03-18T13:08:56;100674.84;;;16.82;23.73
24996;BME280;13016;52.162;21.034;2023-03-18T13:15:57;100666.14;;;16.74;23.82
24996;BME280;13016;52.162;21.034;2023-03-18T13:21:29;100657.77;;;16.59;23.89
24996;BME280;13016;52.162;21.034;2023-03-18T13:29:39;100656.45;;;16.11;24.71
24996;BME280;13016;52.162;21.034;2023-03-18T13:32:39;100650.21;;;16.29;24.39
24996;BME280;13016;52.162;21.034;2023-03-18T13:55:48;100630.90;;;17.30;23.80
24996;BME280;13016;52.162;21.034;2023-03-18T13:58:29;100635.26;;;17.12;23.68
24996;BME280;13016;52.162;21.034;2023-03-18T14:01:24;100633.10;;;16.98;23.82
24996;BME280;13016;52.162;21.034;2023-03-18T14:09:54;100621.40;;;17.05;23.97
24996;BME280;13016;52.162;21.034;2023-03-18T14:17:47;100615.60;;;16.52;24.45
24996;BME280;13016;52.162;21.034;2023-03-18T14:22:54;100619.52;;;16.88;24.25
24996;BME280;13016;52.162;21.034;2023-03-18T14:25:37;100613.02;;;16.93;24.22
24996;BME280;13016;52.162;21.034;2023-03-18T14:38:42;100599.13;;;17.14;23.70
24996;BME280;13016;52.162;21.034;2023-03-18T14:41:28;100596.16;;;17.19;23.80
24996;BME280;13016;52.162;21.034;2023-03-18T14:49:42;100593.98;;;17.29;23.75
24996;BME280;13016;52.162;21.034;2023-03-18T14:54:41;100590.67;;;17.08;24.01
24996;BME280;13016;52.162;21.034;2023-03-18T14:57:16;100595.70;;;17.27;24.18
24996;BME280;13016;52.162;21.034;2023-03-18T14:59:41;100597.92;;;17.39;23.71
24996;BME280;13016;52.162;21.034;2023-03-18T15:02:25;100584.86;;;16.76;23.51
24996;BME280;13016;52.162;21.034;2023-03-18T15:05:17;100589.42;;;17.00;23.89
24996;BME280;13016;52.162;21.034;2023-03-18T15:08:05;100589.60;;;17.10;24.04
24996;BME280;13016;52.162;21.034;2023-03-18T15:10:49;100591.73;;;17.13;24.22
24996;BME280;13016;52.162;21.034;2023-03-18T15:13:18;100584.51;;;16.93;24.24
24996;BME280;13016;52.162;21.034;2023-03-18T15:15:44;100585.89;;;16.94;24.31
24996;BME280;13016;52.162;21.034;2023-03-18T15:18:34;100586.63;;;16.89;24.49
24996;BME280;13016;52.162;21.034;2023-03-18T15:21:17;100585.80;;;17.05;24.22
24996;BME280;13016;52.162;21.034;2023-03-18T15:24:06;100581.25;;;17.10;24.13
24996;BME280;13016;52.162;21.034;2023-03-18T15:26:42;100578.63;;;17.16;24.20
24996;BME280;13016;52.162;21.034;2023-03-18T15:29:30;100575.84;;;16.84;24.36
24996;BME280;13016;52.162;21.034;2023-03-18T15:34:52;100583.21;;;16.96;24.56
24996;BME280;13016;52.162;21.034;2023-03-18T15:37:35;100586.69;;;16.74;24.64
24996;BME280;13016;52.162;21.034;2023-03-18T15:42:47;100586.51;;;16.50;24.94
24996;BME280;13016;52.162;21.034;2023-03-18T15:45:26;100585.19;;;16.27;25.35
24996;BME280;13016;52.162;21.034;2023-03-18T15:48:18;100588.81;;;16.24;25.38
24996;BME280;13016;52.162;21.034;2023-03-18T15:51:03;100593.08;;;16.24;25.45
24996;BME280;13016;52.162;21.034;2023-03-18T15:53:40;100592.06;;;16.36;25.39
24996;BME280;13016;52.162;21.034;2023-03-18T15:56:13;100595.30;;;16.36;25.23
24996;BME280;13016;52.162;21.034;2023-03-18T15:58:38;100596.41;;;16.25;25.48
24996;BME280;13016;52.162;21.034;2023-03-18T16:01:06;100594.03;;;16.34;25.41
24996;BME280;13016;52.162;21.034;2023-03-18T16:03:34;100599.34;;;16.37;25.58
24996;BME280;13016;52.162;21.034;2023-03-18T16:06:01;100597.18;;;16.11;25.73
24996;BME280;13016;52.162;21.034;2023-03-18T16:08:26;100598.61;;;16.26;25.88
24996;BME280;13016;52.162;21.034;2023-03-18T16:10:57;100602.31;;;16.05;25.82
24996;BME280;13016;52.162;21.034;2023-03-18T16:13:28;100603.85;;;16.10;25.93
24996;BME280;13016;52.162;21.034;2023-03-18T16:16:02;100605.30;;;16.23;25.95
24996;BME280;13016;52.162;21.034;2023-03-18T16:18:31;100605.06;;;15.99;25.98
24996;BME280;13016;52.162;21.034;2023-03-18T16:21:17;100602.05;;;16.08;26.03
24996;BME280;13016;52.162;21.034;2023-03-18T16:29:22;100605.71;;;15.82;26.31
24996;BME280;13016;52.162;21.034;2023-03-18T16:31:49;100606.36;;;15.98;26.12
24996;BME280;13016;52.162;21.034;2023-03-18T16:34:24;100605.08;;;15.97;26.40
24996;BME280;13016;52.162;21.034;2023-03-18T16:36:52;100606.59;;;16.09;26.14
24996;BME280;13016;52.162;21.034;2023-03-18T16:41:50;100608.63;;;15.99;26.22
24996;BME280;13016;52.162;21.034;2023-03-18T16:44:20;100608.30;;;16.08;26.17
24996;BME280;13016;52.162;21.034;2023-03-18T16:46:55;100606.46;;;15.82;26.43
24996;BME280;13016;52.162;21.034;2023-03-18T16:52:01;100607.48;;;15.62;26.60
24996;BME280;13016;52.162;21.034;2023-03-18T16:54:29;100605.67;;;15.69;26.68
24996;BME280;13016;52.162;21.034;2023-03-18T16:56:58;100603.56;;;15.69;26.59
24996;BME280;13016;52.162;21.034;2023-03-18T17:02:33;100616.79;;;15.79;26.46
24996;BME280;13016;52.162;21.034;2023-03-18T17:05:00;100618.73;;;15.80;26.30
24996;BME280;13016;52.162;21.034;2023-03-18T17:07:25;100618.75;;;15.91;26.39
24996;BME280;13016;52.162;21.034;2023-03-18T17:09:54;100616.79;;;15.73;26.53
24996;BME280;13016;52.162;21.034;2023-03-18T17:12:22;100615.50;;;15.55;26.73
24996;BME280;13016;52.162;21.034;2023-03-18T17:14:55;100619.05;;;15.78;26.55
24996;BME280;13016;52.162;21.034;2023-03-18T17:17:40;100619.88;;;15.87;26.29
24996;BME280;13016;52.162;21.034;2023-03-18T17:20:20;100620.95;;;15.79;26.38
24996;BME280;13016;52.162;21.034;2023-03-18T17:22:50;100619.78;;;15.84;26.21
24996;BME280;13016;52.162;21.034;2023-03-18T17:25:26;100621.39;;;15.69;26.32
24996;BME280;13016;52.162;21.034;2023-03-18T17:28:05;100619.60;;;15.75;26.36
24996;BME280;13016;52.162;21.034;2023-03-18T17:34:48;100628.92;;;15.81;26.51
24996;BME280;13016;52.162;21.034;2023-03-18T17:37:19;100629.82;;;15.83;26.52
24996;BME280;13016;52.162;21.034;2023-03-18T17:39:46;100631.98;;;15.80;26.70
24996;BME280;13016;52.162;21.034;2023-03-18T17:42:25;100635.69;;;15.81;26.73
24996;BME280;13016;52.162;21.034;2023-03-18T17:45:22;100634.70;;;15.73;27.07
24996;BME280;13016;52.162;21.034;2023-03-18T17:48:09;100634.17;;;15.64;27.22
24996;BME280;13016;52.162;21.034;2023-03-18T17:50:38;100638.55;;;15.54;27.37
24996;BME280;13016;52.162;21.034;2023-03-18T17:53:34;100638.89;;;15.63;27.36
24996;BME280;13016;52.162;21.034;2023-03-18T17:56:08;100639.48;;;15.58;27.40
24996;BME280;13016;52.162;21.034;2023-03-18T17:59:15;100641.86;;;15.50;27.47
24996;BME280;13016;52.162;21.034;2023-03-18T18:12:28;100634.36;;;15.02;28.35
24996;BME280;13016;52.162;21.034;2023-03-18T18:14:53;100630.45;;;14.95;28.38
24996;BME280;13016;52.162;21.034;2023-03-18T18:19:55;100632.74;;;15.02;28.42
24996;BME280;13016;52.162;21.034;2023-03-18T18:22:54;100626.34;;;15.00;28.32
24996;BME280;13016;52.162;21.034;2023-03-18T18:28:39;100623.55;;;15.18;28.20
24996;BME280;13016;52.162;21.034;2023-03-18T19:02:36;100624.44;;;14.99;28.77
24996;BME280;13016;52.162;21.034;2023-03-18T21:23:58;100615.76;;;14.07;31.64
24996;BME280;13016;52.162;21.034;2023-03-18T21:26:24;100611.80;;;14.01;31.78
24996;BME280;13016;52.162;21.034;2023-03-18T21:28:50;100611.13;;;13.83;32.03
24996;BME280;13016;52.162;21.034;2023-03-18T21:31:28;100611.55;;;13.59;32.47
24996;BME280;13016;52.162;21.034;2023-03-18T21:34:01;100607.94;;;13.50;32.66
24996;BME280;13016;52.162;21.034;2023-03-18T21:36:38;100608.86;;;13.50;32.55
24996;BME280;13016;52.162;21.034;2023-03-18T21:46:51;100612.99;;;13.44;32.77
24996;BME280;13016;52.162;21.034;2023-03-18T21:49:17;100609.67;;;13.30;33.01
24996;BME280;13016;52.162;21.034;2023-03-18T21:51:42;100608.75;;;13.41;32.95
24996;BME280;13016;52.162;21.034;2023-03-18T21:54:27;100602.97;;;13.53;32.72
24996;BME280;13016;52.162;21.034;2023-03-18T21:57:21;100608.15;;;13.47;32.91
24996;BME280;13016;52.162;21.034;2023-03-18T22:00:15;100608.55;;;13.37;33.05
24996;BME280;13016;52.162;21.034;2023-03-18T22:02:42;100606.56;;;13.29;33.21
24996;BME280;13016;52.162;21.034;2023-03-18T22:05:17;100602.90;;;13.23;33.28
24996;BME280;13016;52.162;21.034;2023-03-18T22:07:59;100602.11;;;13.24;33.29
24996;BME280;13016;52.162;21.034;2023-03-18T22:10:48;100600.54;;;13.22;33.19
24996;BME280;13016;52.162;21.034;2023-03-18T22:13:25;100597.28;;;13.12;33.41
24996;BME280;13016;52.162;21.034;2023-03-18T22:16:13;100596.95;;;13.15;33.33
24996;BME280;13016;52.162;21.034;2023-03-18T22:18:40;100601.58;;;13.20;33.25
24996;BME280;13016;52.162;21.034;2023-03-18T22:21:20;100601.66;;;13.08;33.36
24996;BME280;13016;52.162;21.034;2023-03-18T22:23:47;100600.11;;;12.91;33.69
24996;BME280;13016;52.162;21.034;2023-03-18T22:26:33;100605.33;;;12.95;33.65
24996;BME280;13016;52.162;21.034;2023-03-18T22:29:19;100603.40;;;12.92;33.63
24996;BME280;13016;52.162;21.034;2023-03-18T22:31:45;100605.27;;;12.91;33.73
24996;BME280;13016;52.162;21.034;2023-03-18T22:34:21;100605.09;;;12.86;33.76
24996;BME280;13016;52.162;21.034;2023-03-18T22:36:54;100608.34;;;12.82;33.83
24996;BME280;13016;52.162;21.034;2023-03-18T22:39:43;100607.50;;;12.84;33.82
24996;BME280;13016;52.162;21.034;2023-03-18T22:42:14;100608.98;;;12.83;33.86
24996;BME280;13016;52.162;21.034;2023-03-18T22:44:41;100607.02;;;12.81;33.86
24996;BME280;13016;52.162;21.034;2023-03-18T22:47:16;100610.56;;;12.70;34.12
24996;BME280;13016;52.162;21.034;2023-03-18T22:50:03;100610.23;;;12.70;34.11
24996;BME280;13016;52.162;21.034;2023-03-18T22:52:50;100608.95;;;12.56;34.38
24996;BME280;13016;52.162;21.034;2023-03-18T22:55:50;100610.77;;;12.48;34.55
24996;BME280;13016;52.162;21.034;2023-03-18T22:58:24;100608.37;;;12.44;34.72
24996;BME280;13016;52.162;21.034;2023-03-18T23:00:52;100606.34;;;12.45;34.60
24996;BME280;13016;52.162;21.034;2023-03-18T23:03:41;100608.30;;;12.53;34.52
24996;BME280;13016;52.162;21.034;2023-03-18T23:06:12;100610.97;;;12.61;34.40
24996;BME280;13016;52.162;21.034;2023-03-18T23:08:41;100609.66;;;12.64;34.40
24996;BME280;13016;52.162;21.034;2023-03-18T23:11:15;100612.23;;;12.66;34.44
24996;BME280;13016;52.162;21.034;2023-03-18T23:13:44;100610.00;;;12.54;34.62
24996;BME280;13016;52.162;21.034;2023-03-18T23:16:18;100608.20;;;12.54;34.55
24996;BME280;13016;52.162;21.034;2023-03-18T23:18:44;100606.19;;;12.45;34.70
24996;BME280;13016;52.162;21.034;2023-03-18T23:21:30;100607.05;;;12.32;35.02
24996;BME280;13016;52.162;21.034;2023-03-18T23:23:55;100608.02;;;12.30;35.06
24996;BME280;13016;52.162;21.034;2023-03-18T23:26:40;100610.21;;;12.35;35.06
24996;BME280;13016;52.162;21.034;2023-03-18T23:29:06;100608.65;;;12.40;35.00
24996;BME280;13016;52.162;21.034;2023-03-18T23:31:56;100609.80;;;12.33;35.00
24996;BME280;13016;52.162;21.034;2023-03-18T23:34:21;100612.14;;;12.13;35.32
24996;BME280;13016;52.162;21.034;2023-03-18T23:37:01;100613.82;;;12.12;35.47
24996;BME280;13016;52.162;21.034;2023-03-18T23:39:31;100615.22;;;12.28;35.09
24996;BME280;13016;52.162;21.034;2023-03-18T23:42:19;100613.13;;;12.22;35.26
24996;BME280;13016;52.162;21.034;2023-03-18T23:44:46;100608.30;;;12.29;35.18
24996;BME280;13016;52.162;21.034;2023-03-18T23:47:15;100605.09;;;12.16;35.37
24996;BME280;13016;52.162;21.034;2023-03-18T23:49:44;100604.08;;;11.96;35.70
24996;BME280;13016;52.162;21.034;2023-03-18T23:52:16;100604.10;;;11.95;35.91
24996;BME280;13016;52.162;21.034;2023-03-18T23:54:42;100601.84;;;11.92;35.87
24996;BME280;13016;52.162;21.034;2023-03-18T23:57:10;100603.99;;;11.86;36.06
24996;BME280;13016;52.162;21.034;2023-03-18T23:59:39;100601.98;;;11.90;36.12
